createdAt,value
2023-04-07T00:00:35.035Z,8.91
2023-04-07T00:01:35.080Z,8.54
2023-04-07T00:02:35.112Z,8.20
2023-04-07T00:03:35.219Z,8.50
2023-04-07T00:04:35.278Z,7.70
2023-04-07T00:05:35.203Z,8.21
2023-04-07T00:06:35.255Z,8.42
2023-04-07T00:07:39.621Z,7.59
2023-04-07T00:08:36.159Z,7.65
2023-04-07T00:09:35.139Z,8.36
2023-04-07T00:10:35.121Z,8.92
2023-04-07T00:11:35.078Z,8.48
2023-04-07T00:12:35.037Z,7.98
2023-04-07T00:13:35.012Z,7.23
2023-04-07T00:14:34.984Z,8.74
2023-04-07T00:15:34.977Z,9.02
2023-04-07T00:16:34.910Z,8.07
2023-04-07T00:17:34.933Z,8.32
2023-04-07T00:18:34.850Z,8.28
2023-04-07T00:19:34.830Z,8.86
2023-04-07T00:20:34.816Z,8.19
2023-04-07T00:21:34.836Z,8.19
2023-04-07T00:22:34.851Z,8.02
2023-04-07T00:23:34.884Z,7.40
2023-04-07T00:24:35.014Z,8.04
2023-04-07T00:25:34.890Z,7.62
2023-04-07T00:26:34.901Z,8.00
2023-04-07T00:27:34.858Z,7.79
2023-04-07T00:28:34.838Z,7.70
2023-04-07T00:29:34.816Z,7.98
2023-04-07T00:30:34.793Z,8.02
2023-04-07T00:31:34.830Z,8.73
2023-04-07T00:32:36.029Z,7.90
2023-04-07T00:33:34.775Z,9.00
2023-04-07T00:34:34.690Z,8.25
2023-04-07T00:35:34.712Z,7.31
2023-04-07T00:36:34.664Z,7.96
2023-04-07T00:37:34.667Z,8.76
2023-04-07T00:38:34.669Z,8.45
2023-04-07T00:39:34.670Z,7.72
2023-04-07T00:40:34.641Z,8.73
2023-04-07T00:41:34.645Z,8.00
2023-04-07T00:42:34.621Z,9.03
2023-04-07T00:43:34.638Z,8.34
2023-04-07T00:44:34.653Z,8.29
2023-04-07T00:45:34.669Z,7.99
2023-04-07T00:46:34.738Z,8.53
2023-04-07T00:47:34.706Z,8.08
2023-04-07T00:48:34.717Z,8.16
2023-04-07T00:49:34.688Z,8.32
2023-04-07T00:50:34.706Z,7.97
2023-04-07T00:51:34.685Z,8.30
2023-04-07T00:52:34.685Z,8.16
2023-04-07T00:53:34.747Z,8.27
2023-04-07T00:54:34.658Z,7.54
2023-04-07T00:55:34.658Z,7.95
2023-04-07T00:56:34.624Z,8.40
2023-04-07T00:57:34.629Z,8.79
2023-04-07T00:58:34.619Z,8.17
2023-04-07T00:59:34.666Z,8.35
2023-04-07T01:00:34.697Z,8.32
2023-04-07T01:01:34.739Z,7.98
2023-04-07T01:02:34.848Z,8.48
2023-04-07T01:03:35.000Z,8.26
2023-04-07T01:04:34.692Z,8.68
2023-04-07T01:05:34.635Z,7.94
2023-04-07T01:06:34.605Z,8.27
2023-04-07T01:07:34.616Z,8.01
2023-04-07T01:08:34.661Z,8.85
2023-04-07T01:09:34.690Z,9.00
2023-04-07T01:10:34.703Z,7.86
2023-04-07T01:11:34.727Z,9.12
2023-04-07T01:12:34.751Z,8.59
2023-04-07T01:13:34.783Z,7.93
2023-04-07T01:14:34.792Z,8.46
2023-04-07T01:15:34.826Z,8.77
2023-04-07T01:16:34.882Z,8.21
2023-04-07T01:17:34.854Z,8.62
2023-04-07T01:18:34.781Z,8.56
2023-04-07T01:19:34.775Z,9.18
2023-04-07T01:20:34.809Z,9.03
2023-04-07T01:21:34.865Z,9.49
2023-04-07T01:22:34.859Z,9.13
2023-04-07T01:23:34.868Z,9.48
2023-04-07T01:24:34.897Z,8.51
2023-04-07T01:25:34.910Z,8.40
2023-04-07T01:26:34.910Z,8.39
2023-04-07T01:27:34.978Z,7.85
2023-04-07T01:28:34.895Z,9.41
2023-04-07T01:29:34.913Z,8.84
2023-04-07T01:30:34.914Z,9.25
2023-04-07T01:31:34.946Z,8.20
2023-04-07T01:32:34.880Z,9.55
2023-04-07T01:33:36.582Z,9.60
2023-04-07T01:34:34.874Z,9.60
2023-04-07T01:35:34.959Z,8.70
2023-04-07T01:36:34.969Z,9.76
2023-04-07T01:37:34.974Z,8.58
2023-04-07T01:38:35.021Z,9.91
2023-04-07T01:39:35.025Z,9.44
2023-04-07T01:40:35.045Z,8.22
2023-04-07T01:41:35.044Z,8.52
2023-04-07T01:42:35.057Z,9.38
2023-04-07T01:43:35.088Z,9.17
2023-04-07T01:44:35.164Z,8.18
2023-04-07T01:45:35.162Z,9.28
2023-04-07T01:46:35.209Z,8.87
2023-04-07T01:47:35.245Z,9.65
2023-04-07T01:48:35.183Z,9.97
2023-04-07T01:49:35.155Z,9.67
2023-04-07T01:50:35.202Z,9.20
2023-04-07T01:51:35.274Z,8.72
2023-04-07T01:52:35.255Z,9.44
2023-04-07T01:53:35.266Z,9.74
2023-04-07T01:54:35.296Z,9.40
2023-04-07T01:55:35.341Z,9.48
2023-04-07T01:56:35.361Z,9.46
2023-04-07T01:57:35.343Z,9.14
2023-04-07T01:58:35.355Z,8.98
2023-04-07T01:59:35.364Z,9.00
2023-04-07T02:00:35.341Z,9.07
2023-04-07T02:01:35.456Z,8.79
2023-04-07T02:02:35.520Z,8.66
2023-04-07T02:03:35.538Z,9.53
2023-04-07T02:04:35.453Z,9.25
2023-04-07T02:05:35.448Z,9.12
2023-04-07T02:06:35.436Z,9.82
2023-04-07T02:07:35.413Z,8.51
2023-04-07T02:08:35.423Z,9.39
2023-04-07T02:09:35.420Z,8.56
2023-04-07T02:10:35.488Z,9.70
2023-04-07T02:11:35.441Z,8.73
2023-04-07T02:12:35.423Z,8.52
2023-04-07T02:13:35.414Z,8.91
2023-04-07T02:14:35.422Z,9.01
2023-04-07T02:15:35.605Z,9.16
2023-04-07T02:16:35.511Z,9.43
2023-04-07T02:17:35.556Z,9.10
2023-04-07T02:18:35.542Z,9.42
2023-04-07T02:19:35.544Z,9.10
2023-04-07T02:20:35.586Z,9.43
2023-04-07T02:21:35.576Z,9.03
2023-04-07T02:22:35.615Z,9.08
2023-04-07T02:23:35.610Z,8.90
2023-04-07T02:24:35.628Z,9.33
2023-04-07T02:25:35.655Z,9.10
2023-04-07T02:26:35.654Z,8.96
2023-04-07T02:27:35.643Z,8.33
2023-04-07T02:28:35.658Z,8.41
2023-04-07T02:29:35.687Z,8.62
2023-04-07T02:30:35.737Z,9.24
2023-04-07T02:32:35.737Z,9.06
2023-04-07T02:33:35.717Z,8.57
2023-04-07T02:34:35.702Z,8.48
2023-04-07T02:35:35.737Z,8.35
2023-04-07T02:36:35.795Z,9.39
2023-04-07T02:37:35.713Z,8.85
2023-04-07T02:38:35.707Z,8.88
2023-04-07T02:39:35.709Z,8.91
2023-04-07T02:40:35.737Z,8.90
2023-04-07T02:41:35.716Z,9.00
2023-04-07T02:42:35.714Z,8.66
2023-04-07T02:43:35.742Z,9.21
2023-04-07T02:44:35.819Z,9.33
2023-04-07T02:45:35.827Z,9.51
2023-04-07T02:46:35.819Z,9.51
2023-04-07T02:47:35.811Z,8.86
2023-04-07T02:48:35.781Z,8.36
2023-04-07T02:49:35.751Z,8.64
2023-04-07T02:50:35.716Z,9.39
2023-04-07T02:51:35.696Z,9.10
2023-04-07T02:52:35.694Z,9.33
2023-04-07T02:53:35.703Z,8.31
2023-04-07T02:54:35.664Z,8.23
2023-04-07T02:55:35.699Z,8.43
2023-04-07T02:56:35.722Z,8.61
2023-04-07T02:57:35.765Z,8.85
2023-04-07T02:58:35.775Z,8.21
2023-04-07T02:59:35.769Z,8.03
2023-04-07T03:00:35.821Z,8.90
2023-04-07T03:01:35.858Z,8.13
2023-04-07T03:02:35.836Z,8.61
2023-04-07T03:03:35.857Z,8.30
2023-04-07T03:04:35.782Z,9.54
2023-04-07T03:05:35.810Z,8.70
2023-04-07T03:06:35.849Z,9.46
2023-04-07T03:07:35.836Z,8.44
2023-04-07T03:08:35.831Z,9.18
2023-04-07T03:09:35.816Z,9.14
2023-04-07T03:10:35.780Z,9.28
2023-04-07T03:11:35.732Z,10.20
2023-04-07T03:12:35.716Z,9.92
2023-04-07T03:13:35.686Z,9.44
2023-04-07T03:14:35.654Z,9.13
2023-04-07T03:15:35.613Z,9.80
2023-04-07T03:16:35.624Z,9.79
2023-04-07T03:17:35.631Z,9.90
2023-04-07T03:18:35.536Z,10.15
2023-04-07T03:19:35.485Z,8.99
2023-04-07T03:20:35.457Z,9.71
2023-04-07T03:21:35.441Z,10.29
2023-04-07T03:22:35.403Z,8.69
2023-04-07T03:23:35.426Z,9.41
2023-04-07T03:24:35.379Z,9.39
2023-04-07T03:25:35.339Z,9.19
2023-04-07T03:26:35.274Z,9.26
2023-04-07T03:27:35.281Z,8.92
2023-04-07T03:28:35.245Z,9.61
2023-04-07T03:29:35.232Z,8.40
2023-04-07T03:30:35.295Z,9.60
2023-04-07T03:31:35.270Z,9.16
2023-04-07T03:32:35.268Z,8.17
2023-04-07T03:33:35.243Z,9.04
2023-04-07T03:34:35.240Z,8.24
2023-04-07T03:35:35.243Z,8.17
2023-04-07T03:36:35.247Z,8.01
2023-04-07T03:37:35.283Z,9.27
2023-04-07T03:38:35.221Z,9.27
2023-04-07T03:39:35.199Z,9.24
2023-04-07T03:40:35.161Z,9.36
2023-04-07T03:41:35.180Z,8.86
2023-04-07T03:42:35.172Z,9.42
2023-04-07T03:43:35.150Z,10.47
2023-04-07T03:44:35.155Z,10.38
2023-04-07T03:45:35.154Z,11.22
2023-04-07T03:46:35.148Z,10.16
2023-04-07T03:47:35.130Z,8.60
2023-04-07T03:48:35.100Z,8.53
2023-04-07T03:49:35.054Z,8.59
2023-04-07T03:50:35.066Z,9.02
2023-04-07T03:51:35.000Z,8.85
2023-04-07T03:52:34.984Z,8.88
2023-04-07T03:53:34.961Z,9.09
2023-04-07T03:54:34.920Z,9.00
2023-04-07T03:55:34.932Z,8.72
2023-04-07T03:56:34.961Z,8.75
2023-04-07T03:57:34.975Z,8.37
2023-04-07T03:58:34.986Z,8.76
2023-04-07T03:59:35.013Z,8.28
2023-04-07T04:00:35.002Z,8.92
2023-04-07T04:01:35.057Z,9.54
2023-04-07T04:02:35.063Z,9.80
2023-04-07T04:03:35.030Z,9.15
2023-04-07T04:04:34.972Z,9.94
2023-04-07T04:05:34.940Z,9.80
2023-04-07T04:06:34.935Z,9.45
2023-04-07T04:07:34.943Z,10.11
2023-04-07T04:08:34.978Z,10.00
2023-04-07T04:09:34.936Z,11.11
2023-04-07T04:10:34.902Z,10.73
2023-04-07T04:11:34.872Z,11.18
2023-04-07T04:12:34.817Z,11.29
2023-04-07T04:13:34.762Z,10.11
2023-04-07T04:14:34.722Z,10.54
2023-04-07T04:15:34.709Z,9.47
2023-04-07T04:16:34.716Z,10.85
2023-04-07T04:17:34.678Z,11.16
2023-04-07T04:18:35.124Z,10.82
2023-04-07T04:19:34.493Z,10.15
2023-04-07T04:20:34.460Z,9.83
2023-04-07T04:21:34.415Z,10.91
2023-04-07T04:22:34.418Z,10.37
2023-04-07T04:23:34.385Z,9.96
2023-04-07T04:24:34.358Z,10.22
2023-04-07T04:25:34.357Z,10.07
2023-04-07T04:26:34.345Z,9.53
2023-04-07T04:27:34.348Z,9.49
2023-04-07T04:28:34.327Z,9.03
2023-04-07T04:29:34.325Z,9.22
2023-04-07T04:30:34.323Z,9.55
2023-04-07T04:31:34.345Z,10.57
2023-04-07T04:32:34.356Z,9.71
2023-04-07T04:33:34.271Z,10.04
2023-04-07T04:34:34.278Z,10.19
2023-04-07T04:35:34.295Z,10.43
2023-04-07T04:36:34.950Z,10.21
2023-04-07T04:37:34.288Z,9.45
2023-04-07T04:38:34.241Z,9.65
2023-04-07T04:39:34.209Z,10.01
2023-04-07T04:40:34.196Z,9.91
2023-04-07T04:41:34.210Z,9.81
2023-04-07T04:42:34.222Z,9.45
2023-04-07T04:43:34.245Z,9.82
2023-04-07T04:44:34.266Z,9.52
2023-04-07T04:45:34.225Z,9.37
2023-04-07T04:46:34.282Z,10.02
2023-04-07T04:47:34.227Z,9.96
2023-04-07T04:48:34.183Z,10.40
2023-04-07T04:49:34.166Z,9.28
2023-04-07T04:50:34.140Z,9.66
2023-04-07T04:51:34.192Z,10.17
2023-04-07T04:52:34.161Z,9.52
2023-04-07T04:53:34.180Z,10.92
2023-04-07T04:54:34.197Z,9.83
2023-04-07T04:55:34.149Z,9.14
2023-04-07T04:56:34.102Z,10.59
2023-04-07T04:57:34.066Z,9.18
2023-04-07T04:58:34.042Z,9.77
2023-04-07T04:59:34.040Z,11.25
2023-04-07T05:00:34.062Z,10.30
2023-04-07T05:01:34.098Z,10.51
2023-04-07T05:02:34.165Z,11.71
2023-04-07T05:03:34.153Z,13.15
2023-04-07T05:04:34.233Z,18.38
2023-04-07T05:05:34.019Z,19.13
2023-04-07T05:06:34.042Z,20.40
2023-04-07T05:07:34.050Z,19.59
2023-04-07T05:08:34.017Z,16.79
2023-04-07T05:09:34.004Z,16.64
2023-04-07T05:10:33.983Z,16.93
2023-04-07T05:11:33.994Z,18.10
2023-04-07T05:12:33.999Z,15.97
2023-04-07T05:13:33.991Z,14.98
2023-04-07T05:14:33.969Z,12.99
2023-04-07T05:15:33.964Z,13.82
2023-04-07T05:16:33.988Z,12.22
2023-04-07T05:17:34.048Z,12.28
2023-04-07T05:18:34.009Z,12.12
2023-04-07T05:19:34.040Z,12.51
2023-04-07T05:20:34.073Z,12.29
2023-04-07T05:21:34.147Z,13.42
2023-04-07T05:22:34.150Z,15.99
2023-04-07T05:23:34.126Z,17.16
2023-04-07T05:24:34.131Z,15.85
2023-04-07T05:25:34.121Z,18.15
2023-04-07T05:26:34.104Z,18.87
2023-04-07T05:27:34.046Z,18.06
2023-04-07T05:28:34.055Z,18.54
2023-04-07T05:29:34.036Z,19.36
2023-04-07T05:30:34.010Z,22.43
2023-04-07T05:31:34.048Z,25.56
2023-04-07T05:32:33.964Z,34.67
2023-04-07T05:33:33.926Z,23.97
2023-04-07T05:34:33.927Z,20.98
2023-04-07T05:35:33.940Z,21.42
2023-04-07T05:36:33.945Z,22.39
2023-04-07T05:37:33.989Z,22.49
2023-04-07T05:38:33.944Z,21.64
2023-04-07T05:39:33.939Z,20.89
2023-04-07T05:40:35.654Z,19.07
2023-04-07T05:41:33.843Z,19.23
2023-04-07T05:42:33.786Z,20.51
2023-04-07T05:43:33.736Z,19.10
2023-04-07T05:44:33.673Z,17.76
2023-04-07T05:45:33.711Z,17.67
2023-04-07T05:46:33.581Z,17.87
2023-04-07T05:47:33.568Z,19.28
2023-04-07T05:48:33.538Z,18.53
2023-04-07T05:49:33.441Z,19.53
2023-04-07T05:50:34.167Z,19.72
2023-04-07T05:51:33.298Z,21.30
2023-04-07T05:52:33.180Z,24.72
2023-04-07T05:53:33.149Z,30.33
2023-04-07T05:54:33.653Z,34.53
2023-04-07T05:55:33.051Z,34.38
2023-04-07T05:56:32.975Z,39.65
2023-04-07T05:57:32.923Z,35.13
2023-04-07T05:58:32.938Z,29.25
2023-04-07T05:59:32.868Z,30.01
2023-04-07T06:00:32.781Z,29.25
2023-04-07T06:01:32.747Z,25.28
2023-04-07T06:02:32.823Z,21.57
2023-04-07T06:03:32.814Z,20.13
2023-04-07T06:04:32.591Z,19.60
2023-04-07T06:05:32.579Z,17.45
2023-04-07T06:06:32.497Z,16.30
2023-04-07T06:07:32.453Z,17.13
2023-04-07T06:08:32.419Z,15.50
2023-04-07T06:09:32.327Z,15.37
2023-04-07T06:10:32.260Z,14.87
2023-04-07T06:11:32.224Z,15.03
2023-04-07T06:12:32.178Z,15.62
2023-04-07T06:13:32.093Z,15.05
2023-04-07T06:14:32.122Z,16.74
2023-04-07T06:15:31.980Z,16.29
2023-04-07T06:16:31.985Z,20.75
2023-04-07T06:17:31.872Z,19.73
2023-04-07T06:18:31.793Z,16.36
2023-04-07T06:19:31.749Z,16.51
2023-04-07T06:20:31.731Z,16.17
2023-04-07T06:21:31.689Z,17.88
2023-04-07T06:22:31.646Z,17.24
2023-04-07T06:23:31.572Z,17.28
2023-04-07T06:24:31.535Z,17.12
2023-04-07T06:25:31.515Z,16.65
2023-04-07T06:26:31.413Z,16.22
2023-04-07T06:27:31.337Z,17.00
2023-04-07T06:28:31.308Z,16.22
2023-04-07T06:29:31.318Z,16.68
2023-04-07T06:30:31.370Z,17.16
2023-04-07T06:31:31.256Z,17.67
2023-04-07T06:32:31.287Z,16.42
2023-04-07T06:33:31.902Z,17.46
2023-04-07T06:34:31.204Z,21.02
2023-04-07T06:35:31.181Z,25.42
2023-04-07T06:36:31.217Z,24.55
2023-04-07T06:37:31.112Z,21.59
2023-04-07T06:38:31.669Z,22.61
2023-04-07T06:39:31.085Z,21.60
2023-04-07T06:40:31.043Z,20.53
2023-04-07T06:41:31.030Z,20.90
2023-04-07T06:42:30.986Z,19.48
2023-04-07T06:43:30.974Z,20.29
2023-04-07T06:44:30.881Z,18.26
2023-04-07T06:45:30.920Z,17.01
2023-04-07T06:46:30.823Z,17.33
2023-04-07T06:47:30.799Z,17.40
2023-04-07T06:48:30.745Z,18.59
2023-04-07T06:49:30.681Z,18.09
2023-04-07T06:50:30.638Z,18.87
2023-04-07T06:51:30.555Z,16.27
2023-04-07T06:52:30.485Z,15.04
2023-04-07T06:53:30.431Z,15.29
2023-04-07T06:54:30.349Z,18.67
2023-04-07T06:55:30.249Z,18.67
2023-04-07T06:56:30.234Z,17.45
2023-04-07T06:57:30.203Z,19.65
2023-04-07T06:58:30.122Z,18.58
2023-04-07T06:59:30.056Z,19.31
2023-04-07T07:00:30.094Z,20.33
2023-04-07T07:01:29.962Z,23.07
2023-04-07T07:02:30.014Z,19.64
2023-04-07T07:03:29.906Z,19.91
2023-04-07T07:04:29.810Z,22.80
2023-04-07T07:05:29.747Z,24.87
2023-04-07T07:06:29.687Z,21.68
2023-04-07T07:07:29.643Z,20.35
2023-04-07T07:08:29.636Z,18.69
2023-04-07T07:09:29.510Z,16.02
2023-04-07T07:10:29.420Z,14.63
2023-04-07T07:11:29.373Z,14.42
2023-04-07T07:12:29.325Z,13.29
2023-04-07T07:13:29.333Z,12.47
2023-04-07T07:14:29.250Z,11.63
2023-04-07T07:15:29.181Z,12.27
2023-04-07T07:16:29.124Z,12.07
2023-04-07T07:17:29.106Z,11.58
2023-04-07T07:18:31.100Z,12.68
2023-04-07T07:19:28.926Z,12.83
2023-04-07T07:20:29.669Z,10.63
2023-04-07T07:21:28.783Z,11.19
2023-04-07T07:22:28.680Z,10.14
2023-04-07T07:23:28.598Z,10.74
2023-04-07T07:24:28.509Z,11.02
2023-04-07T07:25:28.400Z,10.78
2023-04-07T07:26:28.350Z,10.16
2023-04-07T07:27:28.209Z,10.86
2023-04-07T07:28:28.120Z,12.92
2023-04-07T07:29:28.040Z,11.75
2023-04-07T07:30:27.993Z,11.45
2023-04-07T07:31:27.871Z,12.35
2023-04-07T07:32:27.797Z,14.77
2023-04-07T07:33:27.655Z,15.51
2023-04-07T07:34:27.548Z,10.88
2023-04-07T07:35:27.452Z,9.81
2023-04-07T07:36:27.412Z,9.49
2023-04-07T07:37:27.248Z,9.59
2023-04-07T07:38:27.166Z,9.19
2023-04-07T07:39:27.062Z,10.80
2023-04-07T07:40:26.912Z,13.73
2023-04-07T07:41:26.831Z,12.09
2023-04-07T07:42:26.838Z,13.25
2023-04-07T07:43:26.611Z,12.40
2023-04-07T07:44:26.585Z,10.90
2023-04-07T07:45:26.452Z,11.19
2023-04-07T07:46:26.361Z,10.93
2023-04-07T07:47:26.186Z,11.05
2023-04-07T07:48:26.045Z,12.23
2023-04-07T07:49:25.959Z,10.56
2023-04-07T07:50:25.823Z,11.53
2023-04-07T07:51:25.705Z,17.80
2023-04-07T07:52:25.660Z,12.11
2023-04-07T07:53:25.488Z,11.10
2023-04-07T07:54:25.337Z,11.03
2023-04-07T07:55:25.256Z,10.38
2023-04-07T07:56:25.129Z,10.43
2023-04-07T07:57:25.645Z,11.40
2023-04-07T07:58:24.828Z,9.91
2023-04-07T07:59:24.759Z,9.33
2023-04-07T08:00:24.668Z,9.95
2023-04-07T08:01:24.494Z,10.52
2023-04-07T08:02:24.419Z,8.99
2023-04-07T08:03:24.311Z,8.73
2023-04-07T08:04:24.234Z,8.81
2023-04-07T08:05:24.009Z,8.90
2023-04-07T08:06:23.880Z,9.90
2023-04-07T08:07:23.739Z,9.62
2023-04-07T08:08:23.607Z,9.67
2023-04-07T08:09:23.471Z,9.02
2023-04-07T08:10:23.353Z,9.14
2023-04-07T08:11:23.258Z,9.03
2023-04-07T08:12:23.176Z,9.13
2023-04-07T08:13:23.085Z,8.81
2023-04-07T08:14:22.994Z,8.83
2023-04-07T08:15:22.870Z,9.47
2023-04-07T08:16:22.861Z,9.56
2023-04-07T08:17:22.778Z,10.21
2023-04-07T08:18:22.617Z,10.27
2023-04-07T08:19:22.531Z,9.59
2023-04-07T08:20:22.394Z,9.10
2023-04-07T08:21:22.260Z,12.39
2023-04-07T08:22:22.129Z,9.57
2023-04-07T08:23:22.039Z,10.30
2023-04-07T08:24:22.238Z,8.55
2023-04-07T08:25:21.822Z,10.14
2023-04-07T08:26:21.748Z,9.00
2023-04-07T08:27:21.650Z,10.03
2023-04-07T08:28:21.577Z,10.72
2023-04-07T08:29:21.482Z,17.13
2023-04-07T08:30:21.358Z,12.13
2023-04-07T08:31:21.318Z,10.47
2023-04-07T08:32:21.194Z,10.38
2023-04-07T08:33:21.102Z,9.98
2023-04-07T08:34:21.030Z,9.17
2023-04-07T08:35:20.914Z,8.28
2023-04-07T08:36:20.908Z,9.13
2023-04-07T08:37:20.736Z,8.69
2023-04-07T08:38:20.684Z,8.72
2023-04-07T08:39:20.627Z,9.63
2023-04-07T08:40:20.520Z,9.32
2023-04-07T08:41:20.394Z,8.39
2023-04-07T08:42:20.305Z,8.61
2023-04-07T08:43:20.159Z,9.44
2023-04-07T08:44:20.079Z,8.91
2023-04-07T08:45:20.002Z,9.62
2023-04-07T08:46:19.948Z,9.48
2023-04-07T08:47:19.848Z,9.53
2023-04-07T08:48:19.765Z,8.75
2023-04-07T08:49:20.159Z,8.94
2023-04-07T08:50:19.632Z,8.62
2023-04-07T08:51:19.551Z,8.74
2023-04-07T08:52:19.511Z,8.70
2023-04-07T08:53:19.372Z,9.81
2023-04-07T08:54:19.457Z,8.87
2023-04-07T08:55:19.165Z,8.93
2023-04-07T08:56:19.110Z,8.54
2023-04-07T08:57:19.015Z,8.44
2023-04-07T08:58:18.967Z,9.17
2023-04-07T08:59:18.942Z,9.09
2023-04-07T09:00:18.749Z,8.76
2023-04-07T09:01:18.740Z,7.31
2023-04-07T09:02:18.658Z,7.64
2023-04-07T09:03:18.655Z,9.29
2023-04-07T09:04:18.549Z,8.03
2023-04-07T09:05:19.189Z,7.89
2023-04-07T09:06:18.287Z,8.31
2023-04-07T09:07:18.188Z,8.71
2023-04-07T09:08:18.107Z,7.42
2023-04-07T09:09:17.968Z,7.43
2023-04-07T09:10:17.859Z,7.37
2023-04-07T09:11:17.760Z,7.73
2023-04-07T09:12:17.641Z,7.98
2023-04-07T09:13:17.599Z,7.54
2023-04-07T09:14:17.500Z,7.27
2023-04-07T09:15:17.437Z,7.43
2023-04-07T09:16:17.331Z,7.03
2023-04-07T09:17:17.165Z,8.09
2023-04-07T09:18:17.045Z,7.69
2023-04-07T09:19:16.933Z,7.02
2023-04-07T09:20:17.673Z,6.73
2023-04-07T09:21:16.663Z,6.75
2023-04-07T09:22:16.554Z,6.53
2023-04-07T09:23:17.171Z,7.77
2023-04-07T09:24:16.666Z,8.28
2023-04-07T09:25:16.168Z,7.99
2023-04-07T09:26:16.668Z,7.04
2023-04-07T09:27:17.058Z,6.60
2023-04-07T09:28:15.750Z,7.16
2023-04-07T09:29:15.615Z,8.19
2023-04-07T09:30:15.487Z,7.44
2023-04-07T09:31:15.401Z,7.75
2023-04-07T09:32:15.346Z,7.58
2023-04-07T09:33:15.183Z,6.89
2023-04-07T09:34:15.113Z,6.71
2023-04-07T09:35:15.012Z,7.00
2023-04-07T09:36:15.008Z,6.61
2023-04-07T09:37:14.845Z,6.45
2023-04-07T09:38:14.815Z,6.59
2023-04-07T09:39:15.160Z,6.69
2023-04-07T09:40:14.548Z,6.11
2023-04-07T09:41:14.489Z,6.75
2023-04-07T09:42:14.366Z,6.62
2023-04-07T09:43:14.245Z,6.28
2023-04-07T09:44:14.187Z,6.81
2023-04-07T09:45:23.796Z,8.72
2023-04-07T09:46:14.963Z,9.02
2023-04-07T09:47:13.773Z,8.25
2023-04-07T09:48:13.661Z,6.33
2023-04-07T09:49:13.496Z,6.88
2023-04-07T09:50:13.368Z,6.54
2023-04-07T09:51:13.195Z,6.21
2023-04-07T09:52:13.078Z,6.64
2023-04-07T09:53:12.898Z,7.01
2023-04-07T09:54:12.764Z,6.75
2023-04-07T09:55:12.633Z,6.95
2023-04-07T09:56:12.482Z,7.02
2023-04-07T09:57:12.320Z,6.41
2023-04-07T09:58:12.165Z,6.13
2023-04-07T09:59:12.067Z,5.51
2023-04-07T10:00:11.965Z,4.99
2023-04-07T10:01:11.864Z,4.41
2023-04-07T10:02:11.860Z,4.89
2023-04-07T10:03:14.184Z,4.05
2023-04-07T10:04:11.520Z,4.66
2023-04-07T10:05:11.286Z,5.17
2023-04-07T10:06:13.674Z,4.65
2023-04-07T10:07:12.179Z,4.20
2023-04-07T10:08:11.075Z,3.76
2023-04-07T10:09:11.005Z,3.25
2023-04-07T10:10:10.880Z,2.84
2023-04-07T10:11:10.742Z,2.53
2023-04-07T10:12:10.610Z,2.62
2023-04-07T10:13:10.514Z,3.15
2023-04-07T10:14:10.367Z,2.64
2023-04-07T10:15:10.256Z,3.34
2023-04-07T10:16:10.141Z,2.75
2023-04-07T10:17:10.073Z,2.68
2023-04-07T10:18:09.938Z,2.55
2023-04-07T10:19:09.894Z,2.41
2023-04-07T10:20:09.705Z,2.33
2023-04-07T10:21:09.566Z,2.77
2023-04-07T10:22:09.468Z,2.76
2023-04-07T10:23:09.360Z,2.51
2023-04-07T10:24:09.299Z,2.37
2023-04-07T10:25:09.265Z,2.69
2023-04-07T10:26:09.038Z,2.74
2023-04-07T10:27:08.902Z,2.27
2023-04-07T10:28:08.859Z,2.73
2023-04-07T10:29:08.775Z,2.31
2023-04-07T10:30:08.630Z,2.42
2023-04-07T10:31:08.536Z,2.88
2023-04-07T10:32:08.390Z,2.67
2023-04-07T10:33:08.278Z,2.51
2023-04-07T10:34:08.142Z,3.21
2023-04-07T10:35:08.076Z,2.95
2023-04-07T10:36:08.008Z,2.61
2023-04-07T10:37:07.829Z,3.10
2023-04-07T10:38:07.983Z,3.57
2023-04-07T10:39:07.586Z,3.29
2023-04-07T10:40:07.439Z,3.13
2023-04-07T10:41:07.363Z,3.21
2023-04-07T10:42:07.272Z,3.02
2023-04-07T10:43:07.154Z,2.91
2023-04-07T10:44:07.064Z,3.20
2023-04-07T10:45:07.236Z,2.70
2023-04-07T10:46:07.755Z,3.15
2023-04-07T10:47:06.693Z,2.92
2023-04-07T10:48:06.654Z,3.30
2023-04-07T10:49:06.440Z,4.14
2023-04-07T10:50:06.336Z,3.92
2023-04-07T10:51:06.230Z,4.01
2023-04-07T10:52:06.129Z,4.71
2023-04-07T10:53:05.974Z,4.26
2023-04-07T10:54:05.874Z,4.55
2023-04-07T10:55:05.846Z,4.05
2023-04-07T10:56:05.712Z,4.62
2023-04-07T10:57:05.569Z,4.35
2023-04-07T10:58:05.463Z,4.28
2023-04-07T10:59:05.342Z,4.28
2023-04-07T11:00:05.316Z,4.39
2023-04-07T11:01:05.172Z,3.95
2023-04-07T11:02:05.122Z,5.29
2023-04-07T11:03:05.122Z,4.89
2023-04-07T11:04:05.002Z,5.17
2023-04-07T11:05:04.835Z,5.03
2023-04-07T11:06:04.698Z,4.19
2023-04-07T11:07:04.597Z,4.60
2023-04-07T11:08:04.496Z,4.21
2023-04-07T11:09:05.210Z,4.51
2023-04-07T11:10:04.512Z,4.70
2023-04-07T11:11:04.695Z,4.01
2023-04-07T11:12:04.247Z,3.93
2023-04-07T11:13:04.000Z,4.98
2023-04-07T11:14:03.885Z,4.98
2023-04-07T11:15:03.775Z,4.99
2023-04-07T11:16:03.731Z,4.41
2023-04-07T11:17:03.652Z,4.69
2023-04-07T11:18:03.625Z,4.60
2023-04-07T11:19:03.413Z,4.25
2023-04-07T11:20:03.306Z,5.24
2023-04-07T11:21:03.195Z,5.49
2023-04-07T11:22:03.111Z,5.01
2023-04-07T11:23:03.033Z,5.19
2023-04-07T11:24:02.883Z,4.45
2023-04-07T11:25:02.863Z,5.12
2023-04-07T11:26:02.707Z,4.25
2023-04-07T11:27:02.598Z,4.59
2023-04-07T11:28:02.466Z,4.19
2023-04-07T11:29:02.370Z,4.69
2023-04-07T11:30:02.284Z,4.87
2023-04-07T11:31:02.216Z,4.44
2023-04-07T11:32:02.170Z,5.17
2023-04-07T11:33:02.072Z,4.42
2023-04-07T11:34:02.002Z,4.50
2023-04-07T11:35:01.833Z,4.52
2023-04-07T11:36:02.740Z,3.83
2023-04-07T11:37:01.673Z,4.46
2023-04-07T11:38:01.544Z,4.81
2023-04-07T11:39:01.433Z,4.42
2023-04-07T11:40:01.361Z,5.21
2023-04-07T11:41:01.737Z,4.02
2023-04-07T11:42:01.128Z,3.75
2023-04-07T11:43:01.157Z,3.50
2023-04-07T11:44:00.900Z,4.18
2023-04-07T11:45:00.842Z,4.75
2023-04-07T11:46:00.686Z,4.37
2023-04-07T11:47:00.585Z,4.62
2023-04-07T11:48:00.566Z,4.15
2023-04-07T11:49:00.356Z,3.67
2023-04-07T11:50:00.250Z,4.97
2023-04-07T11:51:00.695Z,4.87
2023-04-07T11:52:00.718Z,3.89
2023-04-07T11:53:00.715Z,4.20
2023-04-07T11:53:59.937Z,3.90
2023-04-07T11:54:59.753Z,4.26
2023-04-07T11:56:00.201Z,4.36
2023-04-07T11:56:59.545Z,3.86
2023-04-07T11:57:59.414Z,3.86
2023-04-07T11:58:59.354Z,3.82
2023-04-07T11:59:59.248Z,3.94
2023-04-07T12:00:59.209Z,4.96
2023-04-07T12:01:59.082Z,5.31
2023-04-07T12:02:59.129Z,4.42
2023-04-07T12:03:59.225Z,4.09
2023-04-07T12:04:58.723Z,4.47
2023-04-07T12:05:58.607Z,4.64
2023-04-07T12:06:58.502Z,4.78
2023-04-07T12:07:58.400Z,4.54
2023-04-07T12:08:58.270Z,4.17
2023-04-07T12:09:58.136Z,3.98
2023-04-07T12:10:58.033Z,3.81
2023-04-07T12:11:58.787Z,5.06
2023-04-07T12:12:59.487Z,4.15
2023-04-07T12:13:57.715Z,4.63
2023-04-07T12:14:57.601Z,3.98
2023-04-07T12:15:57.742Z,4.32
2023-04-07T12:16:57.609Z,4.48
2023-04-07T12:17:57.326Z,4.01
2023-04-07T12:18:57.205Z,4.19
2023-04-07T12:19:57.067Z,3.89
2023-04-07T12:20:56.901Z,3.81
2023-04-07T12:21:56.792Z,3.57
2023-04-07T12:22:56.627Z,3.84
2023-04-07T12:23:56.520Z,3.24
2023-04-07T12:24:56.389Z,2.45
2023-04-07T12:25:56.289Z,4.44
2023-04-07T12:26:56.185Z,3.80
2023-04-07T12:27:56.085Z,4.04
2023-04-07T12:28:55.957Z,3.36
2023-04-07T12:29:56.102Z,2.87
2023-04-07T12:30:55.748Z,4.11
2023-04-07T12:31:55.730Z,3.99
2023-04-07T12:32:55.539Z,4.24
2023-04-07T12:33:55.418Z,3.27
2023-04-07T12:34:55.346Z,3.65
2023-04-07T12:35:55.304Z,3.72
2023-04-07T12:36:55.175Z,3.63
2023-04-07T12:37:55.057Z,3.93
2023-04-07T12:38:54.986Z,3.84
2023-04-07T12:39:54.888Z,3.66
2023-04-07T12:40:54.740Z,3.68
2023-04-07T12:41:54.644Z,4.40
2023-04-07T12:42:54.533Z,4.00
2023-04-07T12:43:54.441Z,3.89
2023-04-07T12:44:54.314Z,4.01
2023-04-07T12:45:54.287Z,3.73
2023-04-07T12:46:54.208Z,4.26
2023-04-07T12:47:54.091Z,3.95
2023-04-07T12:48:53.912Z,4.64
2023-04-07T12:49:53.770Z,4.56
2023-04-07T12:50:53.703Z,5.36
2023-04-07T12:51:53.604Z,3.52
2023-04-07T12:52:53.525Z,3.18
2023-04-07T12:53:53.471Z,2.50
2023-04-07T12:54:53.375Z,2.57
2023-04-07T12:55:53.325Z,2.39
2023-04-07T12:56:53.237Z,2.01
2023-04-07T12:57:53.120Z,2.24
2023-04-07T12:58:53.042Z,2.47
2023-04-07T12:59:53.724Z,2.54
2023-04-07T13:00:52.927Z,2.26
2023-04-07T13:01:52.886Z,2.81
2023-04-07T13:02:52.809Z,2.34
2023-04-07T13:03:53.214Z,2.38
2023-04-07T13:04:52.738Z,2.13
2023-04-07T13:05:52.411Z,2.86
2023-04-07T13:06:52.358Z,2.88
2023-04-07T13:07:52.262Z,2.12
2023-04-07T13:08:52.140Z,2.99
2023-04-07T13:09:52.084Z,2.91
2023-04-07T13:10:51.930Z,2.43
2023-04-07T13:11:51.797Z,2.86